Time;durP1;ratioP1;P1;durP2;ratioP2;P2;SDS_P1;SDS_P2;PMS_P1;PMS_P2;Temp;Humidity;BMP_temperature;BMP_pressure;BME280_temperature;BME280_humidity;BME280_pressure;Samples;Min_cycle;Max_cycle;Signal;HPM_P1;HPM_P2
2022/06/24 00:00:11;;;;;;;6.72;1.50;;;;;;;23.25;53.28;99626.56;4927768;28;20052;-73
2022/06/24 00:02:39;;;;;;;8.68;1.40;;;;;;;23.20;53.39;99641.59;4931534;28;20063;-76
2022/06/24 00:05:11;;;;;;;5.10;1.50;;;;;;;23.12;53.32;99639.75;4932103;28;20111;-74
2022/06/24 00:07:52;;;;;;;8.90;1.83;;;;;;;23.15;53.12;99638.56;4930195;28;20120;-74
2022/06/24 00:10:21;;;;;;;11.40;1.50;;;;;;;23.16;53.03;99643.78;4932393;28;20111;-72
2022/06/24 00:12:50;;;;;;;2.90;1.30;;;;;;;23.13;53.18;99649.56;4932510;28;20044;-73
2022/06/24 00:15:42;;;;;;;7.35;1.42;;;;;;;23.25;52.97;99671.66;4929585;28;20082;-73
2022/06/24 00:18:17;;;;;;;4.55;1.30;;;;;;;23.11;52.65;99639.94;4935010;28;20062;-75
2022/06/24 00:20:46;;;;;;;4.97;1.17;;;;;;;23.07;53.04;99666.44;4933390;28;20063;-74
2022/06/24 00:23:15;;;;;;;4.43;1.30;;;;;;;22.98;53.66;99664.75;4926001;29;20063;-72
2022/06/24 00:25:43;;;;;;;4.10;0.97;;;;;;;22.91;54.11;99672.66;4926705;28;20442;-72
2022/06/24 00:28:11;;;;;;;3.72;0.95;;;;;;;22.97;53.74;99673.88;4928312;28;20514;-74
2022/06/24 00:30:40;;;;;;;6.22;1.60;;;;;;;22.95;54.01;99665.94;4933190;28;20504;-74
2022/06/24 00:33:14;;;;;;;5.47;1.20;;;;;;;22.93;54.16;99680.59;4937128;28;20051;-73
2022/06/24 00:35:47;;;;;;;3.33;1.05;;;;;;;22.89;54.57;99690.88;4931446;28;20051;-73
2022/06/24 00:38:20;;;;;;;3.13;1.10;;;;;;;22.88;54.83;99688.34;4930763;28;20349;-73
2022/06/24 00:40:47;;;;;;;6.45;1.45;;;;;;;22.86;54.99;99690.38;4932910;28;20079;-73
2022/06/24 00:43:32;;;;;;;5.07;1.30;;;;;;;22.73;55.60;99688.97;4933943;28;20139;-72
2022/06/24 00:46:10;;;;;;;4.40;1.30;;;;;;;22.67;55.94;99689.63;4925730;28;20055;-73
2022/06/24 00:48:41;;;;;;;4.85;0.93;;;;;;;22.69;56.18;99700.28;4932697;28;20059;-75
2022/06/24 00:51:08;;;;;;;5.78;0.90;;;;;;;22.72;56.69;99716.97;4930530;28;20099;-73
2022/06/24 00:53:50;;;;;;;5.57;1.00;;;;;;;22.77;56.62;99723.78;4928893;28;20052;-75
2022/06/24 00:56:19;;;;;;;5.07;1.27;;;;;;;22.63;56.79;99722.53;4922818;28;20052;-74
2022/06/24 00:58:52;;;;;;;3.83;0.82;;;;;;;22.78;56.94;99755.16;4926766;28;20056;-73
2022/06/24 01:01:35;;;;;;;2.80;1.23;;;;;;;22.75;57.18;99759.84;4932359;28;20086;-72
2022/06/24 01:04:04;;;;;;;3.42;1.10;;;;;;;22.74;57.46;99752.75;4925356;28;20052;-72
2022/06/24 01:06:31;;;;;;;3.15;1.30;;;;;;;22.71;58.01;99754.94;4928723;29;20095;-73
2022/06/24 01:08:58;;;;;;;3.22;1.25;;;;;;;22.66;58.23;99751.91;4925616;28;20112;-74
2022/06/24 01:11:27;;;;;;;6.15;1.23;;;;;;;22.68;58.41;99768.75;4932117;28;20504;-73
2022/06/24 01:13:54;;;;;;;3.22;1.10;;;;;;;22.56;58.63;99743.09;4930429;28;20086;-74
2022/06/24 01:16:23;;;;;;;4.03;1.48;;;;;;;22.60;58.75;99753.41;4931590;28;20507;-72
2022/06/24 01:19:02;;;;;;;1.92;1.20;;;;;;;22.53;59.37;99765.00;4928839;28;20104;-73
2022/06/24 01:21:35;;;;;;;5.13;1.38;;;;;;;22.33;60.53;99756.34;4930026;29;20102;-74
2022/06/24 01:24:04;;;;;;;4.47;0.95;;;;;;;22.18;61.42;99747.19;4927657;28;20048;-74
2022/06/24 01:26:31;;;;;;;3.28;1.20;;;;;;;22.09;63.14;99727.41;4926331;29;20110;-73
2022/06/24 01:28:57;;;;;;;3.28;1.10;;;;;;;22.04;64.41;99730.59;4935397;28;20157;-77
2022/06/24 01:31:24;;;;;;;6.15;1.42;;;;;;;21.97;66.70;99732.22;4934689;28;20055;-73
2022/06/24 01:33:51;;;;;;;7.28;1.10;;;;;;;21.74;68.57;99728.38;4930781;28;20044;-73
2022/06/24 01:36:18;;;;;;;3.75;1.27;;;;;;;21.18;71.57;99732.34;4937948;28;20084;-71
2022/06/24 01:38:44;;;;;;;5.15;1.20;;;;;;;20.63;74.82;99728.94;4927718;28;20124;-73
2022/06/24 01:41:11;;;;;;;7.18;1.60;;;;;;;20.09;77.18;99693.03;4941258;28;20147;-74
2022/06/24 01:43:38;;;;;;;7.68;1.60;;;;;;;20.04;79.96;99726.72;4934680;28;20063;-74
2022/06/24 01:46:04;;;;;;;6.03;1.80;;;;;;;19.96;83.01;99735.53;4931733;28;20483;-73
2022/06/24 01:48:31;;;;;;;5.88;1.73;;;;;;;19.82;86.02;99712.69;4932484;28;20056;-72
2022/06/24 01:50:59;;;;;;;2.53;1.52;;;;;;;19.83;88.57;99714.34;4937717;28;20059;-72
2022/06/24 01:53:26;;;;;;;6.78;1.77;;;;;;;19.75;88.29;99706.19;4926326;28;20137;-72
2022/06/24 01:55:53;;;;;;;7.63;2.03;;;;;;;19.59;86.19;99690.69;4937751;28;20047;-72
2022/06/24 01:58:19;;;;;;;4.63;1.60;;;;;;;19.61;87.71;99707.50;4934699;28;20119;-74
2022/06/24 02:00:46;;;;;;;3.97;1.50;;;;;;;19.47;89.77;99699.03;4929803;28;20051;-72
2022/06/24 02:03:13;;;;;;;4.18;1.58;;;;;;;19.53;89.77;99720.81;4932743;28;20115;-74
2022/06/24 02:05:41;;;;;;;5.78;1.60;;;;;;;19.48;92.05;99731.13;4931538;28;20449;-72
2022/06/24 02:08:07;;;;;;;4.07;1.80;;;;;;;19.46;91.14;99713.47;4932835;28;20067;-73
2022/06/24 02:13:27;;;;;;;7.95;2.28;;;;;;;19.34;95.61;99706.56;4934911;28;20047;-73
2022/06/24 02:16:00;;;;;;;9.27;2.55;;;;;;;19.29;97.21;99696.25;4928019;29;20059;-75
2022/06/24 02:18:28;;;;;;;8.75;2.50;;;;;;;19.07;99.92;99673.25;4926127;29;20048;-75
2022/06/24 02:20:56;;;;;;;6.15;2.33;;;;;;;19.17;100.00;99694.72;4930701;28;20555;-75
2022/06/24 02:23:22;;;;;;;8.45;3.30;;;;;;;18.86;100.00;99654.66;4930006;28;20055;-75
2022/06/24 02:25:50;;;;;;;9.93;2.75;;;;;;;18.91;100.00;99675.66;4928092;28;20562;-76
2022/06/24 02:28:17;;;;;;;7.55;2.80;;;;;;;18.69;100.00;99667.94;4927016;28;20130;-76
2022/06/24 02:30:45;;;;;;;8.50;3.28;;;;;;;18.63;100.00;99674.69;4926170;29;20044;-76
2022/06/24 02:33:13;;;;;;;7.10;2.58;;;;;;;18.54;100.00;99662.97;4928846;28;20071;-76
2022/06/24 02:35:41;;;;;;;5.05;2.67;;;;;;;18.30;100.00;99627.66;4933053;28;20123;-76
2022/06/24 02:38:07;;;;;;;6.50;2.80;;;;;;;18.39;100.00;99645.59;4927277;28;20043;-77
2022/06/24 02:40:47;;;;;;;7.47;2.50;;;;;;;18.60;100.00;99663.41;4930254;28;20083;-76
2022/06/24 02:43:16;;;;;;;8.00;2.90;;;;;;;18.80;100.00;99668.63;4930668;28;20464;-76
2022/06/24 02:45:53;;;;;;;7.43;2.72;;;;;;;18.78;100.00;99667.06;4927502;28;20052;-77
2022/06/24 02:48:21;;;;;;;8.38;2.67;;;;;;;18.61;100.00;99651.69;4925177;28;20420;-76
2022/06/24 02:50:52;;;;;;;4.75;2.83;;;;;;;18.51;100.00;99643.63;4934332;28;20055;-75
2022/06/24 02:53:20;;;;;;;6.10;2.38;;;;;;;18.44;100.00;99632.59;4925788;28;20488;-75
2022/06/24 02:55:49;;;;;;;7.35;3.03;;;;;;;18.38;100.00;99617.09;4926146;28;20147;-74
2022/06/24 02:58:16;;;;;;;6.38;2.70;;;;;;;18.52;100.00;99626.56;4925891;28;21063;-74
2022/06/24 03:00:43;;;;;;;10.15;3.60;;;;;;;18.39;100.00;99586.63;4924824;28;20055;-76
2022/06/24 03:03:11;;;;;;;6.85;2.83;;;;;;;18.38;100.00;99581.41;4931105;28;20087;-76
2022/06/24 03:05:38;;;;;;;6.43;2.97;;;;;;;18.46;100.00;99602.97;4931130;28;20047;-76
2022/06/24 03:08:06;;;;;;;5.70;3.28;;;;;;;18.26;100.00;99593.25;4931889;28;20150;-75
2022/06/24 03:10:33;;;;;;;8.15;3.47;;;;;;;18.38;100.00;99617.09;4933565;29;20151;-74
2022/06/24 03:12:59;;;;;;;8.40;2.90;;;;;;;18.41;100.00;99624.03;4931563;28;20413;-75
2022/06/24 03:15:26;;;;;;;8.82;3.05;;;;;;;18.46;100.00;99638.69;4930274;28;20067;-75
2022/06/24 03:17:53;;;;;;;4.68;3.00;;;;;;;18.47;100.00;99639.53;4933574;28;20397;-75
2022/06/24 03:20:19;;;;;;;5.03;3.20;;;;;;;18.63;100.00;99644.34;4932983;28;20185;-74
2022/06/24 03:22:46;;;;;;;8.50;3.20;;;;;;;18.68;100.00;99647.47;4931983;28;20047;-75
2022/06/24 03:25:13;;;;;;;7.50;3.10;;;;;;;18.75;100.00;99657.47;4935829;28;20134;-74
2022/06/24 03:27:39;;;;;;;8.65;3.08;;;;;;;18.84;100.00;99677.25;4932003;28;20051;-75
2022/06/24 03:30:08;;;;;;;5.65;3.33;;;;;;;18.90;100.00;99676.66;4932362;28;20055;-74
2022/06/24 03:32:35;;;;;;;5.13;2.90;;;;;;;18.96;100.00;99670.75;4930226;28;20051;-74
2022/06/24 03:35:06;;;;;;;7.10;2.97;;;;;;;18.76;100.00;99636.84;4934869;28;20055;-74
2022/06/24 03:37:32;;;;;;;7.43;2.78;;;;;;;18.93;100.00;99676.38;4929197;28;20138;-74
2022/06/24 03:39:59;;;;;;;6.60;2.72;;;;;;;18.76;100.00;99644.91;4934695;28;20062;-75
2022/06/24 03:42:26;;;;;;;8.57;2.60;;;;;;;18.93;100.00;99673.69;4932582;28;20043;-75
2022/06/24 03:44:54;;;;;;;5.93;2.50;;;;;;;19.03;100.00;99682.59;4932086;28;20051;-74
2022/06/24 03:47:21;;;;;;;7.30;3.08;;;;;;;19.04;100.00;99684.31;4933819;28;20064;-76
2022/06/24 03:49:50;;;;;;;7.60;2.78;;;;;;;19.01;100.00;99670.31;4938531;28;20090;-72
2022/06/24 03:52:18;;;;;;;6.88;2.95;;;;;;;18.99;100.00;99664.25;4928590;28;20055;-77
2022/06/24 03:54:45;;;;;;;5.60;2.90;;;;;;;19.21;100.00;99690.75;4928344;28;20520;-72
2022/06/24 03:57:12;;;;;;;10.38;3.50;;;;;;;19.27;100.00;99693.72;4935826;28;20073;-72
2022/06/24 03:59:39;;;;;;;5.72;2.80;;;;;;;19.31;100.00;99693.44;4930299;28;20051;-73
2022/06/24 04:02:06;;;;;;;8.40;2.97;;;;;;;19.24;100.00;99680.56;4929286;28;20052;-72
2022/06/24 04:04:32;;;;;;;5.47;3.22;;;;;;;19.28;100.00;99698.09;4941593;28;20103;-72
2022/06/24 04:06:59;;;;;;;7.43;3.08;;;;;;;19.30;100.00;99695.25;4935507;28;20142;-72
2022/06/24 04:09:26;;;;;;;5.85;3.17;;;;;;;19.31;100.00;99691.59;4930163;28;20066;-74
2022/06/24 04:11:52;;;;;;;5.55;2.90;;;;;;;19.32;100.00;99689.75;4933941;28;20055;-73
2022/06/24 04:15:13;;;;;;;6.80;3.90;;;;;;;19.38;100.00;99700.75;4930945;28;20427;-72
2022/06/24 04:17:06;;;;;;;6.88;3.90;;;;;;;19.46;100.00;99683.94;4926260;28;20083;-74
2022/06/24 04:19:36;;;;;;;7.32;4.38;;;;;;;19.46;100.00;99676.72;4924136;29;20059;-74
2022/06/24 04:22:05;;;;;;;7.15;4.88;;;;;;;19.49;100.00;99679.16;4933551;28;20088;-71
2022/06/24 04:24:32;;;;;;;8.90;4.50;;;;;;;19.57;100.00;99675.72;4932918;28;20078;-73
2022/06/24 04:26:59;;;;;;;6.03;4.32;;;;;;;19.63;100.00;99677.81;4934359;28;20064;-72
2022/06/24 04:29:25;;;;;;;8.60;5.25;;;;;;;19.61;100.00;99672.59;4927327;28;20075;-74
2022/06/24 04:31:52;;;;;;;6.43;4.63;;;;;;;19.68;100.00;99672.84;4936195;28;20082;-73
2022/06/24 04:34:23;;;;;;;8.00;4.97;;;;;;;19.63;100.00;99655.50;4925843;29;20044;-72
2022/06/24 04:36:50;;;;;;;11.45;5.50;;;;;;;19.64;100.00;99660.72;4934329;28;20412;-73
2022/06/24 04:39:16;;;;;;;10.85;6.07;;;;;;;19.66;100.00;99666.78;4918449;29;20056;-71
2022/06/24 04:41:43;;;;;;;7.90;6.07;;;;;;;19.63;100.00;99669.75;4929822;28;20044;-71
2022/06/24 04:44:10;;;;;;;12.45;6.47;;;;;;;19.68;99.73;99666.63;4932891;28;20090;-71
2022/06/24 04:46:36;;;;;;;10.35;6.10;;;;;;;19.69;100.00;99663.78;4935178;28;20495;-71
2022/06/24 04:49:03;;;;;;;10.48;7.13;;;;;;;19.71;99.88;99671.69;4931223;29;20055;-71
2022/06/24 04:51:29;;;;;;;8.82;6.25;;;;;;;19.65;100.00;99675.00;4933270;28;20078;-71
2022/06/24 04:53:56;;;;;;;9.68;6.45;;;;;;;19.61;100.00;99667.22;4932225;28;20116;-74
2022/06/24 04:56:23;;;;;;;9.07;6.65;;;;;;;19.54;100.00;99671.47;4931673;28;20050;-71
2022/06/24 04:58:49;;;;;;;11.20;6.93;;;;;;;19.63;100.00;99675.13;4928520;29;20039;-71
2022/06/24 05:01:16;;;;;;;9.27;6.25;;;;;;;19.67;100.00;99671.16;4932747;28;20410;-71
2022/06/24 05:03:43;;;;;;;9.13;6.40;;;;;;;19.68;100.00;99666.63;4927534;28;20117;-71
2022/06/24 05:06:10;;;;;;;10.48;8.18;;;;;;;19.70;100.00;99662.78;4925111;28;20052;-71
2022/06/24 05:08:36;;;;;;;10.82;7.97;;;;;;;19.68;100.00;99655.88;4921977;29;20135;-73
2022/06/24 05:11:05;;;;;;;13.88;9.50;;;;;;;19.43;100.00;99622.47;4930206;28;20513;-70
2022/06/24 05:13:32;;;;;;;9.88;7.95;;;;;;;19.60;100.00;99645.88;4936763;28;20075;-74
2022/06/24 05:15:58;;;;;;;12.57;8.77;;;;;;;19.66;100.00;99650.69;4929069;28;20052;-71
2022/06/24 05:18:45;;;;;;;13.15;8.88;;;;;;;19.78;100.00;99652.16;4925112;29;20150;-71
2022/06/24 05:21:12;;;;;;;11.57;7.97;;;;;;;19.83;99.10;99644.50;4920408;28;20060;-73
2022/06/24 05:23:38;;;;;;;12.90;7.95;;;;;;;19.82;100.00;99652.72;4929595;28;20514;-71
2022/06/24 05:26:05;;;;;;;10.70;7.85;;;;;;;19.69;100.00;99646.81;4930586;28;20051;-72
2022/06/24 05:28:35;;;;;;;11.13;8.20;;;;;;;19.69;100.00;99644.13;4926082;28;20088;-70
2022/06/24 05:31:02;;;;;;;8.68;6.80;;;;;;;19.80;99.95;99644.81;4920498;28;20500;-70
2022/06/24 05:33:29;;;;;;;9.90;6.60;;;;;;;19.88;98.65;99642.22;4927922;29;20126;-70
2022/06/24 05:35:58;;;;;;;9.93;5.80;;;;;;;19.92;97.09;99642.75;4924199;28;20048;-69
2022/06/24 05:38:25;;;;;;;10.02;6.20;;;;;;;19.96;97.54;99654.91;4925299;29;20055;-69
2022/06/24 05:40:52;;;;;;;8.35;6.18;;;;;;;19.96;95.90;99647.69;4922341;29;20048;-71
2022/06/24 05:43:19;;;;;;;10.10;6.45;;;;;;;20.09;96.64;99651.88;4923585;28;20118;-73
2022/06/24 05:45:47;;;;;;;13.82;7.95;;;;;;;19.92;97.04;99648.97;4927396;29;20055;-72
2022/06/24 05:48:14;;;;;;;8.20;6.95;;;;;;;19.91;96.60;99641.91;4926254;28;20070;-76
2022/06/24 05:50:41;;;;;;;11.63;7.60;;;;;;;19.97;96.94;99637.78;4926781;28;20099;-72
2022/06/24 05:56:01;;;;;;;11.48;7.10;;;;;;;20.04;96.82;99646.09;4927724;28;20492;-69
2022/06/24 05:58:29;;;;;;;10.23;6.50;;;;;;;20.19;94.54;99640.03;4927061;28;20099;-70
2022/06/24 06:00:56;;;;;;;7.90;6.32;;;;;;;20.39;92.88;99645.31;4923668;28;20139;-69
2022/06/24 06:03:24;;;;;;;8.63;6.15;;;;;;;20.48;91.96;99637.19;4921514;28;20060;-69
2022/06/24 06:05:52;;;;;;;7.95;6.28;;;;;;;20.44;91.25;99626.91;4927810;28;20147;-69
2022/06/24 06:08:19;;;;;;;10.93;6.78;;;;;;;20.50;90.35;99631.66;4926068;28;20051;-70
2022/06/24 06:10:47;;;;;;;6.82;5.82;;;;;;;20.62;89.64;99641.16;4923172;28;20056;-69
2022/06/24 06:13:14;;;;;;;9.88;6.35;;;;;;;20.70;90.11;99637.72;4926587;28;20056;-69
2022/06/24 06:15:42;;;;;;;10.80;6.00;;;;;;;20.84;89.56;99637.16;4924900;28;20071;-71
2022/06/24 06:18:10;;;;;;;9.27;5.97;;;;;;;20.99;88.86;99641.81;4924459;28;20440;-74
2022/06/24 06:20:37;;;;;;;8.63;6.82;;;;;;;21.02;87.48;99619.97;4924185;28;20098;-69
2022/06/24 06:23:11;;;;;;;7.60;6.28;;;;;;;21.39;86.44;99635.06;4927117;28;20494;-71
2022/06/24 06:25:38;;;;;;;8.23;6.25;;;;;;;21.68;83.06;99637.41;4924779;28;20048;-70
2022/06/24 06:28:05;;;;;;;9.80;5.93;;;;;;;22.02;82.83;99649.03;4916852;28;20059;-72
2022/06/24 06:30:32;;;;;;;13.25;6.25;;;;;;;22.38;80.22;99654.19;4923130;28;20056;-73
2022/06/24 06:32:59;;;;;;;10.23;5.88;;;;;;;22.53;78.67;99647.13;4927147;28;20056;-71
2022/06/24 06:35:25;;;;;;;9.02;5.78;;;;;;;22.66;78.71;99652.06;4927108;28;20130;-72
2022/06/24 06:37:52;;;;;;;8.75;5.22;;;;;;;22.32;76.50;99652.16;4920146;28;20056;-75
2022/06/24 06:40:19;;;;;;;8.48;6.25;;;;;;;22.02;79.59;99658.97;4922327;28;20063;-71
2022/06/24 06:42:46;;;;;;;8.82;4.97;;;;;;;22.03;78.71;99650.75;4927949;28;20162;-70
2022/06/24 06:45:13;;;;;;;10.50;5.00;;;;;;;21.75;80.03;99645.69;4920898;28;20052;-74
2022/06/24 06:47:39;;;;;;;8.15;4.55;;;;;;;21.76;81.19;99640.13;4928502;28;20052;-75
2022/06/24 06:50:07;;;;;;;10.43;4.68;;;;;;;21.98;78.69;99641.41;4928558;28;20099;-73
2022/06/24 06:52:38;;;;;;;5.18;4.00;;;;;;;22.14;77.81;99644.19;4927268;28;20059;-73
2022/06/24 06:55:05;;;;;;;9.38;4.13;;;;;;;22.43;75.14;99643.75;4928382;28;20129;-70
2022/06/24 06:57:33;;;;;;;5.10;3.10;;;;;;;22.66;73.64;99642.09;4926865;28;21218;-71
2022/06/24 06:59:59;;;;;;;6.82;3.40;;;;;;;22.74;72.92;99639.41;4940477;28;20073;-70
2022/06/24 07:02:26;;;;;;;8.48;4.07;;;;;;;22.77;72.73;99632.00;4926787;29;20075;-70
2022/06/24 07:04:54;;;;;;;4.60;3.83;;;;;;;22.43;73.82;99635.66;4926891;29;20490;-73
2022/06/24 07:07:20;;;;;;;6.78;3.40;;;;;;;22.75;74.43;99635.69;4926811;28;20043;-72
2022/06/24 07:09:47;;;;;;;7.40;3.25;;;;;;;23.55;71.36;99632.25;4925841;28;20052;-70
2022/06/24 07:12:14;;;;;;;7.53;3.22;;;;;;;23.93;69.60;99633.28;4922122;28;20079;-75
2022/06/24 07:14:41;;;;;;;7.78;3.13;;;;;;;24.27;67.09;99635.69;4917915;28;20075;-74
2022/06/24 07:17:13;;;;;;;7.95;3.30;;;;;;;24.52;66.14;99595.78;4914637;28;20572;-71
2022/06/24 07:19:40;;;;;;;4.63;3.10;;;;;;;24.98;62.93;99626.41;4921233;28;20071;-73
2022/06/24 07:22:07;;;;;;;8.35;3.50;;;;;;;24.79;63.68;99631.25;4930263;28;20062;-70
2022/06/24 07:24:34;;;;;;;7.20;2.70;;;;;;;23.61;65.51;99629.69;4927661;28;20388;-71
2022/06/24 07:27:09;;;;;;;6.32;3.05;;;;;;;23.31;66.56;99628.56;4930757;28;20054;-70
2022/06/24 07:29:37;;;;;;;5.28;2.78;;;;;;;22.84;68.21;99630.31;4929403;28;20452;-70
2022/06/24 07:32:06;;;;;;;4.82;3.08;;;;;;;22.51;70.94;99624.84;4926942;28;20059;-72
2022/06/24 07:34:34;;;;;;;6.57;2.93;;;;;;;22.62;70.27;99619.16;4925755;29;20051;-71
2022/06/24 07:37:02;;;;;;;5.57;2.95;;;;;;;22.71;69.55;99625.38;4927199;28;20208;-71
2022/06/24 07:39:29;;;;;;;9.63;3.90;;;;;;;22.08;71.39;99592.75;4922784;28;20465;-70
2022/06/24 07:41:57;;;;;;;8.32;3.85;;;;;;;22.08;73.09;99604.38;4922450;28;20060;-70
2022/06/24 07:44:24;;;;;;;6.22;3.63;;;;;;;22.05;72.65;99597.47;4920389;28;20392;-70
2022/06/24 07:46:50;;;;;;;3.28;2.97;;;;;;;21.92;72.86;99583.59;4923328;28;20123;-72
2022/06/24 07:49:17;;;;;;;3.42;2.33;;;;;;;22.13;71.53;99617.38;4925154;28;20122;-72
2022/06/24 07:51:45;;;;;;;4.85;2.80;;;;;;;22.29;70.54;99604.78;4923386;28;20048;-75
2022/06/24 07:54:12;;;;;;;3.60;2.50;;;;;;;22.74;71.35;99612.41;4931433;28;20079;-73
2022/06/24 07:56:57;;;;;;;6.22;2.70;;;;;;;23.49;65.39;99595.09;4928662;28;20063;-72
2022/06/24 07:59:35;;;;;;;3.40;2.10;;;;;;;24.42;61.44;99602.25;4936692;28;20139;-71
2022/06/24 08:02:07;;;;;;;1.90;1.70;;;;;;;24.66;60.02;99612.06;4928135;28;20102;-73
2022/06/24 08:04:34;;;;;;;2.55;2.05;;;;;;;24.34;60.75;99609.59;4930431;28;20421;-71
2022/06/24 08:07:02;;;;;;;5.10;2.00;;;;;;;23.89;62.81;99615.75;4926486;29;20056;-70
2022/06/24 08:09:31;;;;;;;3.55;2.40;;;;;;;23.76;63.03;99606.34;4929350;28;20126;-76
2022/06/24 08:12:00;;;;;;;4.93;2.00;;;;;;;23.48;65.20;99609.59;4926470;28;20123;-75
2022/06/24 08:14:27;;;;;;;2.97;2.20;;;;;;;23.17;65.19;99613.06;4931784;28;20164;-72
2022/06/24 08:16:54;;;;;;;5.38;2.38;;;;;;;22.99;66.52;99596.22;4922609;29;20079;-74
2022/06/24 08:19:21;;;;;;;6.60;2.55;;;;;;;22.96;66.58;99596.56;4933009;28;20539;-72
2022/06/24 08:21:48;;;;;;;3.25;2.38;;;;;;;23.08;66.39;99597.91;4930272;28;20043;-72
2022/06/24 08:24:15;;;;;;;3.85;2.35;;;;;;;23.06;65.52;99581.88;4932282;28;20560;-73
2022/06/24 08:26:42;;;;;;;3.97;2.15;;;;;;;23.38;64.80;99612.53;4925032;28;20050;-75
2022/06/24 08:29:10;;;;;;;3.70;2.17;;;;;;;23.23;63.82;99600.75;4930002;29;20055;-73
2022/06/24 08:31:38;;;;;;;4.55;2.25;;;;;;;23.42;64.16;99598.50;4934880;28;20067;-72
2022/06/24 08:34:05;;;;;;;3.20;2.38;;;;;;;23.42;63.20;99595.81;4932517;28;20059;-74
2022/06/24 08:36:32;;;;;;;8.40;2.47;;;;;;;23.18;63.65;99566.13;4924210;28;20138;-70
2022/06/24 08:38:58;;;;;;;3.88;2.30;;;;;;;22.99;64.32;99604.31;4922358;29;20131;-70
2022/06/24 08:41:26;;;;;;;5.47;2.10;;;;;;;22.47;66.54;99588.44;4919203;29;20048;-70
2022/06/24 08:43:55;;;;;;;2.88;2.10;;;;;;;22.44;67.42;99607.66;4927804;28;20082;-71
2022/06/24 08:46:22;;;;;;;4.78;2.55;;;;;;;22.50;68.45;99612.41;4924684;28;20110;-71
2022/06/24 08:48:49;;;;;;;4.85;2.58;;;;;;;22.47;68.64;99609.19;4921703;28;20051;-69
2022/06/24 08:51:16;;;;;;;6.15;2.38;;;;;;;22.25;68.27;99597.19;4931170;28;20110;-72
2022/06/24 08:53:47;;;;;;;4.65;2.47;;;;;;;22.11;69.41;99611.31;4928304;28;20071;-71
2022/06/24 08:56:34;;;;;;;3.92;2.50;;;;;;;21.81;70.90;99600.06;4930299;28;20399;-72
2022/06/24 08:59:01;;;;;;;5.05;3.00;;;;;;;21.86;73.78;99624.69;4929142;28;20158;-72
2022/06/24 09:01:28;;;;;;;5.15;2.67;;;;;;;21.84;74.80;99621.31;4932861;28;20675;-70
2022/06/24 09:03:59;;;;;;;4.45;2.85;;;;;;;21.88;73.33;99622.66;4925958;28;20060;-72
2022/06/24 09:06:35;;;;;;;3.70;2.60;;;;;;;21.68;72.89;99624.78;4923771;29;20359;-72
2022/06/24 09:09:02;;;;;;;3.58;2.40;;;;;;;21.49;73.88;99625.03;4929630;28;20051;-72
2022/06/24 09:11:37;;;;;;;5.07;2.80;;;;;;;21.32;75.13;99620.53;4926940;28;20048;-72
2022/06/24 09:14:04;;;;;;;3.88;2.60;;;;;;;21.27;76.84;99614.78;4922437;28;20065;-69
2022/06/24 09:16:31;;;;;;;4.10;2.35;;;;;;;21.51;74.76;99632.94;4927076;29;20051;-69
2022/06/24 09:19:00;;;;;;;2.50;2.30;;;;;;;21.67;73.42;99622.25;4926964;28;20075;-70
2022/06/24 09:21:30;;;;;;;6.30;2.85;;;;;;;21.84;71.05;99618.63;4928933;28;20051;-70
2022/06/24 09:23:59;;;;;;;3.60;2.58;;;;;;;21.78;71.05;99608.47;4928476;28;20047;-72
2022/06/24 09:26:40;;;;;;;3.83;2.50;;;;;;;21.73;71.04;99591.09;4930571;28;20056;-70
2022/06/24 09:29:11;;;;;;;5.03;2.70;;;;;;;22.01;70.17;99619.56;4926697;28;20087;-68
2022/06/24 09:31:39;;;;;;;4.97;2.90;;;;;;;22.17;69.27;99613.34;4924830;29;20055;-72
2022/06/24 09:34:09;;;;;;;3.35;2.60;;;;;;;22.35;68.40;99614.88;4922513;28;20078;-72
2022/06/24 09:36:39;;;;;;;5.93;2.70;;;;;;;22.70;67.97;99613.75;4930503;28;20155;-72
2022/06/24 09:39:09;;;;;;;3.72;2.55;;;;;;;23.19;65.74;99611.03;4923658;29;20147;-70
2022/06/24 09:41:48;;;;;;;5.43;2.67;;;;;;;23.74;62.88;99599.44;4922061;28;20063;-69
2022/06/24 09:44:15;;;;;;;3.30;2.42;;;;;;;24.21;61.06;99612.88;4922447;28;20142;-73
2022/06/24 09:46:43;;;;;;;4.55;2.30;;;;;;;24.39;59.55;99594.53;4926614;29;20051;-70
2022/06/24 09:49:17;;;;;;;3.33;2.30;;;;;;;24.58;60.16;99605.88;4927425;28;20051;-69
2022/06/24 09:51:44;;;;;;;3.25;2.53;;;;;;;24.10;60.57;99592.47;4919424;28;20555;-72
2022/06/24 09:54:18;;;;;;;3.80;2.00;;;;;;;23.63;62.42;99624.97;4927554;28;20495;-71
2022/06/24 09:56:47;;;;;;;3.65;2.17;;;;;;;23.66;62.63;99618.38;4912390;28;20067;-71
2022/06/24 10:02:21;;;;;;;3.70;2.35;;;;;;;23.45;62.56;99611.63;4916691;28;20139;-72
2022/06/24 10:04:52;;;;;;;4.20;2.22;;;;;;;23.25;62.65;99604.97;4917401;29;20052;-73
2022/06/24 10:07:24;;;;;;;3.63;2.42;;;;;;;23.17;63.80;99602.25;4916493;28;20075;-71
2022/06/24 10:10:02;;;;;;;3.37;2.37;;;;;;;23.14;63.75;99610.69;4917426;28;20047;-72
2022/06/24 10:12:30;;;;;;;;;;;;;;;22.85;64.58;99616.63;4917727;28;20483;-71
2022/06/24 10:14:59;;;;;;;2.35;2.13;;;;;;;22.69;65.00;99600.41;4925441;28;19933;-71
2022/06/24 10:17:29;;;;;;;2.90;2.58;;;;;;;22.67;66.02;99584.38;4926287;28;20457;-69
2022/06/24 10:19:57;;;;;;;5.05;3.30;;;;;;;23.32;63.97;99597.84;4933292;28;20047;-71
2022/06/24 10:22:44;;;;;;;4.07;3.03;;;;;;;24.25;60.54;99599.84;4922914;28;21878;-71
2022/06/24 10:25:11;;;;;;;4.70;2.42;;;;;;;24.32;59.11;99598.13;4931114;28;20063;-71
2022/06/24 10:27:59;;;;;;;2.85;2.35;;;;;;;24.21;59.31;99601.22;4924894;28;20094;-70
2022/06/24 10:30:45;;;;;;;4.72;2.40;;;;;;;24.14;58.98;99591.09;4919979;29;20055;-70
2022/06/24 10:33:19;;;;;;;4.82;3.05;;;;;;;23.90;60.40;99599.34;4924907;28;20145;-72
2022/06/24 10:36:05;;;;;;;6.95;3.33;;;;;;;23.69;60.40;99581.03;4924339;28;20052;-68
2022/06/24 10:38:42;;;;;;;3.60;2.70;;;;;;;23.56;60.68;99591.56;4918495;28;20618;-72
2022/06/24 10:41:13;;;;;;;3.53;2.30;;;;;;;23.71;60.74;99597.06;4915686;28;23806;-69
2022/06/24 10:43:44;;;;;;;4.80;2.38;;;;;;;23.82;59.33;99593.97;4905755;28;20051;-69
2022/06/24 10:46:11;;;;;;;4.75;3.00;;;;;;;24.06;59.37;99599.28;4920276;28;20480;-71
2022/06/24 10:48:44;;;;;;;4.63;2.53;;;;;;;24.37;58.50;99601.13;4923849;28;20611;-71
2022/06/24 10:51:21;;;;;;;3.53;2.80;;;;;;;24.63;56.53;99584.53;4938428;28;20150;-72
2022/06/24 10:54:06;;;;;;;3.45;2.67;;;;;;;25.01;56.11;99588.97;4923221;28;20050;-71
2022/06/24 10:56:51;;;;;;;2.75;2.42;;;;;;;25.23;56.34;99589.06;4920642;29;20389;-73
2022/06/24 10:59:19;;;;;;;3.20;2.65;;;;;;;25.10;54.20;99576.16;4923314;28;20115;-73
2022/06/24 11:01:49;;;;;;;4.65;2.50;;;;;;;24.71;56.64;99571.75;4924227;28;20083;-72
2022/06/24 11:04:21;;;;;;;4.07;2.22;;;;;;;24.56;56.46;99578.13;4925741;28;20078;-72
2022/06/24 11:07:08;;;;;;;3.03;2.13;;;;;;;24.43;57.44;99568.78;4926694;28;20051;-72
2022/06/24 11:09:35;;;;;;;2.88;2.22;;;;;;;24.42;55.88;99555.41;4924658;28;20370;-72
2022/06/24 11:12:25;;;;;;;3.90;2.10;;;;;;;24.71;55.95;99576.34;4923511;28;20082;-71
2022/06/24 11:14:52;;;;;;;3.97;2.00;;;;;;;24.98;54.25;99572.22;4937814;28;20103;-73
2022/06/24 11:17:26;;;;;;;4.32;1.90;;;;;;;25.10;53.22;99565.31;4922775;29;20047;-71
2022/06/24 11:19:53;;;;;;;4.20;3.08;;;;;;;25.16;53.37;99560.03;4922181;29;20055;-72
2022/06/24 11:22:20;;;;;;;2.20;1.88;;;;;;;25.10;53.10;99566.16;4921739;28;20689;-74
2022/06/24 11:24:49;;;;;;;3.53;2.00;;;;;;;25.20;53.14;99560.47;4925476;28;20052;-73
2022/06/24 11:27:16;;;;;;;2.47;1.70;;;;;;;25.29;52.09;99562.06;4925213;29;20051;-74
2022/06/24 11:29:56;;;;;;;2.30;2.10;;;;;;;25.26;51.74;99546.19;4921795;28;20059;-73
2022/06/24 11:32:25;;;;;;;2.88;2.42;;;;;;;25.20;51.07;99560.47;4924651;29;20063;-72
2022/06/24 11:34:51;;;;;;;7.70;1.90;;;;;;;25.12;51.92;99556.00;4928845;28;20503;-73
2022/06/24 11:37:23;;;;;;;3.20;1.80;;;;;;;25.25;51.73;99555.34;4921871;29;20076;-73
2022/06/24 11:39:58;;;;;;;1.70;1.60;;;;;;;25.27;50.80;99542.44;4926249;29;20055;-72
2022/06/24 11:42:24;;;;;;;3.83;2.00;;;;;;;25.35;50.65;99563.19;4921553;28;20139;-74
2022/06/24 11:44:51;;;;;;;2.05;1.70;;;;;;;25.43;50.74;99554.97;4929996;28;20474;-73
2022/06/24 11:47:32;;;;;;;3.97;1.70;;;;;;;25.77;49.80;99554.41;4927402;29;20071;-72
2022/06/24 11:49:59;;;;;;;2.70;1.92;;;;;;;25.90;49.32;99551.84;4923766;28;20059;-72